sensor_id;sensor_type;location;lat;lon;timestamp;temperature;humidity
18930;DHT22;43305;52.186;5.598;2023-03-14T00:01:59;10.60;99.90
18930;DHT22;43305;52.186;5.598;2023-03-14T00:04:26;10.50;99.90
18930;DHT22;43305;52.186;5.598;2023-03-14T00:06:53;10.40;99.90
18930;DHT22;43305;52.186;5.598;2023-03-14T00:09:20;10.30;99.90
18930;DHT22;43305;52.186;5.598;2023-03-14T00:11:46;10.30;99.90
18930;DHT22;43305;52.186;5.598;2023-03-14T00:14:13;10.30;99.90
18930;DHT22;43305;52.186;5.598;2023-03-14T00:16:42;10.30;99.90
18930;DHT22;43305;52.186;5.598;2023-03-14T00:19:13;10.30;99.90
18930;DHT22;43305;52.186;5.598;2023-03-14T00:21:40;10.40;99.90
18930;DHT22;43305;52.186;5.598;2023-03-14T00:24:07;10.40;99.90
18930;DHT22;43305;52.186;5.598;2023-03-14T00:26:34;10.40;99.90
18930;DHT22;43305;52.186;5.598;2023-03-14T00:29:01;10.40;99.90
18930;DHT22;43305;52.186;5.598;2023-03-14T00:31:30;10.40;99.90
18930;DHT22;43305;52.186;5.598;2023-03-14T00:33:57;10.50;99.90
18930;DHT22;43305;52.186;5.598;2023-03-14T00:36:25;10.50;99.90
18930;DHT22;43305;52.186;5.598;2023-03-14T00:38:53;10.50;99.90
18930;DHT22;43305;52.186;5.598;2023-03-14T00:41:21;10.60;99.90
18930;DHT22;43305;52.186;5.598;2023-03-14T00:43:48;10.60;99.90
18930;DHT22;43305;52.186;5.598;2023-03-14T00:46:16;10.60;99.90
18930;DHT22;43305;52.186;5.598;2023-03-14T00:48:44;10.60;99.90
18930;DHT22;43305;52.186;5.598;2023-03-14T00:51:12;10.60;99.90
18930;DHT22;43305;52.186;5.598;2023-03-14T00:53:41;10.60;99.90
18930;DHT22;43305;52.186;5.598;2023-03-14T00:56:10;10.60;99.90
18930;DHT22;43305;52.186;5.598;2023-03-14T00:58:37;10.60;99.90
18930;DHT22;43305;52.186;5.598;2023-03-14T01:01:09;10.60;99.90
18930;DHT22;43305;52.186;5.598;2023-03-14T01:03:36;10.60;99.90
18930;DHT22;43305;52.186;5.598;2023-03-14T01:06:08;10.60;99.90
18930;DHT22;43305;52.186;5.598;2023-03-14T01:08:35;10.50;99.90
18930;DHT22;43305;52.186;5.598;2023-03-14T01:11:07;10.50;99.90
18930;DHT22;43305;52.186;5.598;2023-03-14T01:13:34;10.50;99.90
18930;DHT22;43305;52.186;5.598;2023-03-14T01:16:02;10.50;99.90
18930;DHT22;43305;52.186;5.598;2023-03-14T01:18:30;10.40;99.90
18930;DHT22;43305;52.186;5.598;2023-03-14T01:20:57;10.40;99.90
18930;DHT22;43305;52.186;5.598;2023-03-14T01:23:24;10.40;99.90
18930;DHT22;43305;52.186;5.598;2023-03-14T01:25:51;10.40;99.90
18930;DHT22;43305;52.186;5.598;2023-03-14T01:28:19;10.30;99.90
18930;DHT22;43305;52.186;5.598;2023-03-14T01:30:46;10.20;99.90
18930;DHT22;43305;52.186;5.598;2023-03-14T01:33:13;10.10;99.90
18930;DHT22;43305;52.186;5.598;2023-03-14T01:35:40;10.10;99.90
18930;DHT22;43305;52.186;5.598;2023-03-14T01:38:07;10.00;99.90
18930;DHT22;43305;52.186;5.598;2023-03-14T01:40:33;9.90;99.90
18930;DHT22;43305;52.186;5.598;2023-03-14T01:43:13;9.80;99.90
18930;DHT22;43305;52.186;5.598;2023-03-14T01:49:02;9.70;99.90
18930;DHT22;43305;52.186;5.598;2023-03-14T01:51:35;9.50;99.90
18930;DHT22;43305;52.186;5.598;2023-03-14T01:54:09;9.50;99.90
18930;DHT22;43305;52.186;5.598;2023-03-14T01:56:37;9.40;99.90
18930;DHT22;43305;52.186;5.598;2023-03-14T01:59:06;9.40;99.90
18930;DHT22;43305;52.186;5.598;2023-03-14T02:01:34;9.40;99.90
18930;DHT22;43305;52.186;5.598;2023-03-14T02:04:05;9.30;99.90
18930;DHT22;43305;52.186;5.598;2023-03-14T02:06:41;9.30;99.90
18930;DHT22;43305;52.186;5.598;2023-03-14T02:09:09;9.30;99.90
18930;DHT22;43305;52.186;5.598;2023-03-14T02:11:36;9.30;99.90
18930;DHT22;43305;52.186;5.598;2023-03-14T02:14:03;9.30;99.90
18930;DHT22;43305;52.186;5.598;2023-03-14T02:16:31;9.30;99.90
18930;DHT22;43305;52.186;5.598;2023-03-14T02:18:57;9.20;99.90
18930;DHT22;43305;52.186;5.598;2023-03-14T02:21:34;9.20;99.90
18930;DHT22;43305;52.186;5.598;2023-03-14T02:24:09;9.30;99.90
18930;DHT22;43305;52.186;5.598;2023-03-14T02:26:44;9.30;99.90
18930;DHT22;43305;52.186;5.598;2023-03-14T02:29:13;9.30;99.90
18930;DHT22;43305;52.186;5.598;2023-03-14T02:31:40;9.30;99.90
18930;DHT22;43305;52.186;5.598;2023-03-14T02:34:07;9.30;99.90
18930;DHT22;43305;52.186;5.598;2023-03-14T02:36:34;9.30;99.90
18930;DHT22;43305;52.186;5.598;2023-03-14T02:39:08;9.30;99.90
18930;DHT22;43305;52.186;5.598;2023-03-14T02:41:37;9.30;99.90
18930;DHT22;43305;52.186;5.598;2023-03-14T02:44:04;9.30;99.90
18930;DHT22;43305;52.186;5.598;2023-03-14T02:46:32;9.30;99.90
18930;DHT22;43305;52.186;5.598;2023-03-14T02:49:02;9.30;99.90
18930;DHT22;43305;52.186;5.598;2023-03-14T02:51:30;9.30;99.90
18930;DHT22;43305;52.186;5.598;2023-03-14T02:53:58;9.30;99.90
18930;DHT22;43305;52.186;5.598;2023-03-14T02:56:25;9.30;99.90
18930;DHT22;43305;52.186;5.598;2023-03-14T02:58:52;9.30;99.90
18930;DHT22;43305;52.186;5.598;2023-03-14T03:01:19;9.30;99.90
18930;DHT22;43305;52.186;5.598;2023-03-14T03:03:48;9.20;99.90
18930;DHT22;43305;52.186;5.598;2023-03-14T03:06:15;9.20;99.90
18930;DHT22;43305;52.186;5.598;2023-03-14T03:08:42;9.20;99.90
18930;DHT22;43305;52.186;5.598;2023-03-14T03:11:08;9.20;99.90
18930;DHT22;43305;52.186;5.598;2023-03-14T03:13:35;9.20;99.90
18930;DHT22;43305;52.186;5.598;2023-03-14T03:16:02;9.20;99.90
18930;DHT22;43305;52.186;5.598;2023-03-14T03:18:30;9.20;99.90
18930;DHT22;43305;52.186;5.598;2023-03-14T03:21:01;9.20;99.90
18930;DHT22;43305;52.186;5.598;2023-03-14T03:23:28;9.20;99.90
18930;DHT22;43305;52.186;5.598;2023-03-14T03:25:55;9.30;99.90
18930;DHT22;43305;52.186;5.598;2023-03-14T03:28:22;9.30;99.90
18930;DHT22;43305;52.186;5.598;2023-03-14T03:30:49;9.30;99.90
18930;DHT22;43305;52.186;5.598;2023-03-14T03:33:25;9.30;99.90
18930;DHT22;43305;52.186;5.598;2023-03-14T03:35:52;9.30;99.90
18930;DHT22;43305;52.186;5.598;2023-03-14T03:38:20;9.30;99.90
18930;DHT22;43305;52.186;5.598;2023-03-14T03:40:47;9.30;99.90
18930;DHT22;43305;52.186;5.598;2023-03-14T03:43:14;9.30;99.90
18930;DHT22;43305;52.186;5.598;2023-03-14T03:45:41;9.30;99.90
18930;DHT22;43305;52.186;5.598;2023-03-14T03:48:08;9.30;99.90
18930;DHT22;43305;52.186;5.598;2023-03-14T03:50:35;9.30;99.90
18930;DHT22;43305;52.186;5.598;2023-03-14T03:53:02;9.40;99.90
18930;DHT22;43305;52.186;5.598;2023-03-14T03:55:30;9.40;99.90
18930;DHT22;43305;52.186;5.598;2023-03-14T03:57:57;9.40;99.90
18930;DHT22;43305;52.186;5.598;2023-03-14T04:00:24;9.40;99.90
18930;DHT22;43305;52.186;5.598;2023-03-14T04:02:50;9.40;99.90
18930;DHT22;43305;52.186;5.598;2023-03-14T04:05:17;9.30;99.90
18930;DHT22;43305;52.186;5.598;2023-03-14T04:07:46;9.30;99.90
18930;DHT22;43305;52.186;5.598;2023-03-14T04:10:13;9.40;99.90
18930;DHT22;43305;52.186;5.598;2023-03-14T04:12:41;9.40;99.90
18930;DHT22;43305;52.186;5.598;2023-03-14T04:15:09;9.40;99.90
18930;DHT22;43305;52.186;5.598;2023-03-14T04:17:36;9.40;99.90
18930;DHT22;43305;52.186;5.598;2023-03-14T04:20:04;9.40;99.90
18930;DHT22;43305;52.186;5.598;2023-03-14T04:22:33;9.40;99.90
18930;DHT22;43305;52.186;5.598;2023-03-14T04:25:00;9.40;99.90
18930;DHT22;43305;52.186;5.598;2023-03-14T04:27:27;9.40;99.90
18930;DHT22;43305;52.186;5.598;2023-03-14T04:29:55;9.50;99.90
18930;DHT22;43305;52.186;5.598;2023-03-14T04:32:22;9.50;99.90
18930;DHT22;43305;52.186;5.598;2023-03-14T04:34:49;9.50;99.90
18930;DHT22;43305;52.186;5.598;2023-03-14T04:37:16;9.50;99.90
18930;DHT22;43305;52.186;5.598;2023-03-14T04:39:43;9.50;99.90
18930;DHT22;43305;52.186;5.598;2023-03-14T04:42:10;9.50;99.90
18930;DHT22;43305;52.186;5.598;2023-03-14T04:44:37;9.50;99.90
18930;DHT22;43305;52.186;5.598;2023-03-14T04:47:05;9.60;99.90
18930;DHT22;43305;52.186;5.598;2023-03-14T04:49:32;9.50;99.90
18930;DHT22;43305;52.186;5.598;2023-03-14T04:51:59;9.60;99.90
18930;DHT22;43305;52.186;5.598;2023-03-14T04:54:25;9.60;99.90
18930;DHT22;43305;52.186;5.598;2023-03-14T04:56:52;9.60;99.90
18930;DHT22;43305;52.186;5.598;2023-03-14T04:59:22;9.60;99.90
18930;DHT22;43305;52.186;5.598;2023-03-14T05:01:50;9.60;99.90
18930;DHT22;43305;52.186;5.598;2023-03-14T05:04:19;9.70;99.90
18930;DHT22;43305;52.186;5.598;2023-03-14T05:06:48;9.70;99.90
18930;DHT22;43305;52.186;5.598;2023-03-14T05:09:18;9.60;99.90
18930;DHT22;43305;52.186;5.598;2023-03-14T05:11:45;9.60;99.90
18930;DHT22;43305;52.186;5.598;2023-03-14T05:14:12;9.70;99.90
18930;DHT22;43305;52.186;5.598;2023-03-14T05:16:38;9.60;99.90
18930;DHT22;43305;52.186;5.598;2023-03-14T05:19:05;9.60;99.90
18930;DHT22;43305;52.186;5.598;2023-03-14T05:21:33;9.60;99.90
18930;DHT22;43305;52.186;5.598;2023-03-14T05:24:00;9.50;99.90
18930;DHT22;43305;52.186;5.598;2023-03-14T05:26:27;9.50;99.90
18930;DHT22;43305;52.186;5.598;2023-03-14T05:28:54;9.40;99.90
18930;DHT22;43305;52.186;5.598;2023-03-14T05:31:21;9.30;99.90
18930;DHT22;43305;52.186;5.598;2023-03-14T05:33:48;9.30;99.90
18930;DHT22;43305;52.186;5.598;2023-03-14T05:36:14;9.20;99.90
18930;DHT22;43305;52.186;5.598;2023-03-14T05:38:43;9.20;99.90
18930;DHT22;43305;52.186;5.598;2023-03-14T05:41:10;9.20;99.90
18930;DHT22;43305;52.186;5.598;2023-03-14T05:43:36;9.10;99.90
18930;DHT22;43305;52.186;5.598;2023-03-14T05:46:04;9.10;99.90
18930;DHT22;43305;52.186;5.598;2023-03-14T05:48:30;9.10;99.90
18930;DHT22;43305;52.186;5.598;2023-03-14T05:50:58;9.10;99.90
18930;DHT22;43305;52.186;5.598;2023-03-14T05:53:25;9.10;99.90
18930;DHT22;43305;52.186;5.598;2023-03-14T05:55:56;9.10;99.90
18930;DHT22;43305;52.186;5.598;2023-03-14T05:58:23;9.10;99.90
18930;DHT22;43305;52.186;5.598;2023-03-14T06:00:50;9.10;99.90
18930;DHT22;43305;52.186;5.598;2023-03-14T06:03:17;9.00;99.90
18930;DHT22;43305;52.186;5.598;2023-03-14T06:05:49;9.00;99.90
18930;DHT22;43305;52.186;5.598;2023-03-14T06:08:16;9.00;99.90
18930;DHT22;43305;52.186;5.598;2023-03-14T06:10:43;9.10;99.90
18930;DHT22;43305;52.186;5.598;2023-03-14T06:13:11;9.10;99.90
18930;DHT22;43305;52.186;5.598;2023-03-14T06:15:38;9.10;99.90
18930;DHT22;43305;52.186;5.598;2023-03-14T06:18:05;9.10;99.90
18930;DHT22;43305;52.186;5.598;2023-03-14T06:20:32;9.00;99.90
18930;DHT22;43305;52.186;5.598;2023-03-14T06:23:00;9.10;99.90
18930;DHT22;43305;52.186;5.598;2023-03-14T06:25:27;9.10;99.90
18930;DHT22;43305;52.186;5.598;2023-03-14T06:27:54;9.10;99.90
18930;DHT22;43305;52.186;5.598;2023-03-14T06:30:22;9.10;99.90
18930;DHT22;43305;52.186;5.598;2023-03-14T06:32:49;9.10;99.90
18930;DHT22;43305;52.186;5.598;2023-03-14T06:35:16;9.10;99.90
18930;DHT22;43305;52.186;5.598;2023-03-14T06:37:43;9.10;99.90
18930;DHT22;43305;52.186;5.598;2023-03-14T06:40:11;9.10;99.90
18930;DHT22;43305;52.186;5.598;2023-03-14T06:42:42;9.10;99.90
18930;DHT22;43305;52.186;5.598;2023-03-14T06:45:09;9.10;99.90
18930;DHT22;43305;52.186;5.598;2023-03-14T06:47:38;9.10;99.90
18930;DHT22;43305;52.186;5.598;2023-03-14T06:50:06;9.10;99.90
18930;DHT22;43305;52.186;5.598;2023-03-14T06:52:33;9.10;99.90
18930;DHT22;43305;52.186;5.598;2023-03-14T06:55:00;9.10;99.90
18930;DHT22;43305;52.186;5.598;2023-03-14T06:57:27;9.00;99.90
18930;DHT22;43305;52.186;5.598;2023-03-14T06:59:56;9.00;99.90
18930;DHT22;43305;52.186;5.598;2023-03-14T07:02:23;8.70;99.90
18930;DHT22;43305;52.186;5.598;2023-03-14T07:04:51;8.50;99.90
18930;DHT22;43305;52.186;5.598;2023-03-14T07:07:18;8.40;99.90
18930;DHT22;43305;52.186;5.598;2023-03-14T07:09:44;8.40;99.90
18930;DHT22;43305;52.186;5.598;2023-03-14T07:12:11;8.30;99.90
18930;DHT22;43305;52.186;5.598;2023-03-14T07:14:38;8.20;99.90
18930;DHT22;43305;52.186;5.598;2023-03-14T07:17:05;8.20;99.90
18930;DHT22;43305;52.186;5.598;2023-03-14T07:19:32;8.10;99.90
18930;DHT22;43305;52.186;5.598;2023-03-14T07:22:00;8.10;99.90
18930;DHT22;43305;52.186;5.598;2023-03-14T07:24:27;8.00;99.90
18930;DHT22;43305;52.186;5.598;2023-03-14T07:26:54;8.00;99.90
18930;DHT22;43305;52.186;5.598;2023-03-14T07:29:21;7.90;99.90
18930;DHT22;43305;52.186;5.598;2023-03-14T07:31:48;7.90;99.90
18930;DHT22;43305;52.186;5.598;2023-03-14T07:34:17;7.90;99.90
18930;DHT22;43305;52.186;5.598;2023-03-14T07:36:44;7.80;99.90
18930;DHT22;43305;52.186;5.598;2023-03-14T07:39:20;7.70;99.90
18930;DHT22;43305;52.186;5.598;2023-03-14T07:41:47;7.70;99.90
18930;DHT22;43305;52.186;5.598;2023-03-14T07:44:14;7.80;99.90
18930;DHT22;43305;52.186;5.598;2023-03-14T07:46:40;7.70;99.90
18930;DHT22;43305;52.186;5.598;2023-03-14T07:49:07;7.70;99.90
18930;DHT22;43305;52.186;5.598;2023-03-14T07:51:34;7.60;99.90
18930;DHT22;43305;52.186;5.598;2023-03-14T07:54:01;7.60;99.90
18930;DHT22;43305;52.186;5.598;2023-03-14T07:56:29;7.60;99.90
18930;DHT22;43305;52.186;5.598;2023-03-14T07:58:56;7.60;99.90
18930;DHT22;43305;52.186;5.598;2023-03-14T08:01:23;7.50;99.90
18930;DHT22;43305;52.186;5.598;2023-03-14T08:03:50;7.50;99.90
18930;DHT22;43305;52.186;5.598;2023-03-14T08:06:17;7.30;99.90
18930;DHT22;43305;52.186;5.598;2023-03-14T08:08:44;7.20;99.90
18930;DHT22;43305;52.186;5.598;2023-03-14T08:11:11;7.00;99.90
18930;DHT22;43305;52.186;5.598;2023-03-14T08:13:39;6.90;99.90
18930;DHT22;43305;52.186;5.598;2023-03-14T08:16:06;6.80;99.90
18930;DHT22;43305;52.186;5.598;2023-03-14T08:18:33;6.70;99.90
18930;DHT22;43305;52.186;5.598;2023-03-14T08:21:00;6.70;99.90
18930;DHT22;43305;52.186;5.598;2023-03-14T08:23:27;6.60;99.90
18930;DHT22;43305;52.186;5.598;2023-03-14T08:25:54;6.60;99.90
18930;DHT22;43305;52.186;5.598;2023-03-14T08:28:20;6.60;99.90
18930;DHT22;43305;52.186;5.598;2023-03-14T08:30:49;6.50;99.90
18930;DHT22;43305;52.186;5.598;2023-03-14T08:33:16;6.50;99.90
18930;DHT22;43305;52.186;5.598;2023-03-14T08:35:45;6.40;99.90
18930;DHT22;43305;52.186;5.598;2023-03-14T08:38:11;6.40;99.90
18930;DHT22;43305;52.186;5.598;2023-03-14T08:40:38;6.50;99.90
18930;DHT22;43305;52.186;5.598;2023-03-14T08:43:05;6.50;99.90
18930;DHT22;43305;52.186;5.598;2023-03-14T08:45:32;6.60;99.90
18930;DHT22;43305;52.186;5.598;2023-03-14T08:48:00;6.60;99.90
18930;DHT22;43305;52.186;5.598;2023-03-14T08:50:27;6.70;99.90
18930;DHT22;43305;52.186;5.598;2023-03-14T08:52:54;6.70;99.90
18930;DHT22;43305;52.186;5.598;2023-03-14T08:55:23;6.80;99.90
18930;DHT22;43305;52.186;5.598;2023-03-14T08:57:49;6.80;99.90
18930;DHT22;43305;52.186;5.598;2023-03-14T09:00:17;6.90;99.90
18930;DHT22;43305;52.186;5.598;2023-03-14T09:02:44;6.90;99.90
18930;DHT22;43305;52.186;5.598;2023-03-14T09:05:17;6.80;99.90
18930;DHT22;43305;52.186;5.598;2023-03-14T09:07:44;6.80;99.90
18930;DHT22;43305;52.186;5.598;2023-03-14T09:10:11;7.00;99.90
18930;DHT22;43305;52.186;5.598;2023-03-14T09:12:37;7.00;99.90
18930;DHT22;43305;52.186;5.598;2023-03-14T09:15:05;7.10;99.90
18930;DHT22;43305;52.186;5.598;2023-03-14T09:17:32;7.20;99.90
18930;DHT22;43305;52.186;5.598;2023-03-14T09:19:59;7.30;99.90
18930;DHT22;43305;52.186;5.598;2023-03-14T09:22:27;7.20;99.90
18930;DHT22;43305;52.186;5.598;2023-03-14T09:24:54;7.20;99.90
18930;DHT22;43305;52.186;5.598;2023-03-14T09:27:21;7.20;99.90
18930;DHT22;43305;52.186;5.598;2023-03-14T09:29:48;7.30;99.90
18930;DHT22;43305;52.186;5.598;2023-03-14T09:32:14;7.30;99.90
18930;DHT22;43305;52.186;5.598;2023-03-14T09:34:44;7.30;99.90
18930;DHT22;43305;52.186;5.598;2023-03-14T09:37:11;7.30;99.90
18930;DHT22;43305;52.186;5.598;2023-03-14T09:39:39;7.40;99.90
18930;DHT22;43305;52.186;5.598;2023-03-14T09:42:10;7.40;99.90
18930;DHT22;43305;52.186;5.598;2023-03-14T09:44:53;7.30;99.90
18930;DHT22;43305;52.186;5.598;2023-03-14T09:47:22;7.30;99.90
18930;DHT22;43305;52.186;5.598;2023-03-14T09:49:49;7.40;99.90
18930;DHT22;43305;52.186;5.598;2023-03-14T09:52:19;7.40;99.90
18930;DHT22;43305;52.186;5.598;2023-03-14T09:54:50;7.40;99.90
18930;DHT22;43305;52.186;5.598;2023-03-14T09:57:19;7.40;99.90
18930;DHT22;43305;52.186;5.598;2023-03-14T09:59:49;7.40;99.90
18930;DHT22;43305;52.186;5.598;2023-03-14T10:02:19;7.40;99.90
18930;DHT22;43305;52.186;5.598;2023-03-14T10:04:48;7.40;99.90
18930;DHT22;43305;52.186;5.598;2023-03-14T10:07:17;7.40;99.90
18930;DHT22;43305;52.186;5.598;2023-03-14T10:09:47;7.40;99.90
18930;DHT22;43305;52.186;5.598;2023-03-14T10:12:17;7.40;99.90
18930;DHT22;43305;52.186;5.598;2023-03-14T10:14:47;7.50;99.90
18930;DHT22;43305;52.186;5.598;2023-03-14T10:17:15;7.70;99.90
18930;DHT22;43305;52.186;5.598;2023-03-14T10:19:53;7.90;99.90
18930;DHT22;43305;52.186;5.598;2023-03-14T10:22:23;7.90;99.90
18930;DHT22;43305;52.186;5.598;2023-03-14T10:24:53;7.60;99.90
18930;DHT22;43305;52.186;5.598;2023-03-14T10:27:28;7.40;99.90
18930;DHT22;43305;52.186;5.598;2023-03-14T10:29:56;7.20;99.90
18930;DHT22;43305;52.186;5.598;2023-03-14T10:32:31;7.20;99.90
18930;DHT22;43305;52.186;5.598;2023-03-14T10:35:18;7.30;99.90
18930;DHT22;43305;52.186;5.598;2023-03-14T10:37:53;7.50;99.90
18930;DHT22;43305;52.186;5.598;2023-03-14T10:40:26;7.70;99.90
18930;DHT22;43305;52.186;5.598;2023-03-14T10:42:55;7.90;99.90
18930;DHT22;43305;52.186;5.598;2023-03-14T10:45:36;8.10;99.90
18930;DHT22;43305;52.186;5.598;2023-03-14T10:48:18;8.20;99.90
18930;DHT22;43305;52.186;5.598;2023-03-14T10:50:49;8.10;99.90
18930;DHT22;43305;52.186;5.598;2023-03-14T10:53:17;8.00;99.90
18930;DHT22;43305;52.186;5.598;2023-03-14T10:55:45;7.80;99.90
18930;DHT22;43305;52.186;5.598;2023-03-14T10:58:24;7.70;99.90
18930;DHT22;43305;52.186;5.598;2023-03-14T11:01:00;7.40;99.90
18930;DHT22;43305;52.186;5.598;2023-03-14T11:03:31;7.30;99.90
18930;DHT22;43305;52.186;5.598;2023-03-14T11:06:05;7.30;99.90
18930;DHT22;43305;52.186;5.598;2023-03-14T11:08:39;7.30;99.90
18930;DHT22;43305;52.186;5.598;2023-03-14T11:11:13;7.20;99.90
18930;DHT22;43305;52.186;5.598;2023-03-14T11:13:47;7.20;99.90
18930;DHT22;43305;52.186;5.598;2023-03-14T11:16:25;7.20;99.90
18930;DHT22;43305;52.186;5.598;2023-03-14T11:19:27;7.30;99.90
18930;DHT22;43305;52.186;5.598;2023-03-14T11:22:02;7.40;99.90
18930;DHT22;43305;52.186;5.598;2023-03-14T11:25:01;7.50;99.90
18930;DHT22;43305;52.186;5.598;2023-03-14T11:27:35;7.60;99.90
18930;DHT22;43305;52.186;5.598;2023-03-14T11:30:15;7.90;99.90
18930;DHT22;43305;52.186;5.598;2023-03-14T11:32:46;8.40;99.90
18930;DHT22;43305;52.186;5.598;2023-03-14T11:35:22;9.10;99.90
18930;DHT22;43305;52.186;5.598;2023-03-14T11:37:53;9.30;99.90
18930;DHT22;43305;52.186;5.598;2023-03-14T11:40:22;9.30;99.90
18930;DHT22;43305;52.186;5.598;2023-03-14T11:42:56;9.40;99.90
18930;DHT22;43305;52.186;5.598;2023-03-14T11:45:30;9.50;99.90
18930;DHT22;43305;52.186;5.598;2023-03-14T11:48:20;10.20;99.90
18930;DHT22;43305;52.186;5.598;2023-03-14T11:50:52;10.80;99.90
18930;DHT22;43305;52.186;5.598;2023-03-14T11:53:25;11.20;99.90
18930;DHT22;43305;52.186;5.598;2023-03-14T11:55:56;10.80;99.90
18930;DHT22;43305;52.186;5.598;2023-03-14T11:58:25;11.00;99.90
18930;DHT22;43305;52.186;5.598;2023-03-14T12:00:57;11.30;99.90
18930;DHT22;43305;52.186;5.598;2023-03-14T12:03:28;11.20;99.90
18930;DHT22;43305;52.186;5.598;2023-03-14T12:06:02;11.30;99.90
18930;DHT22;43305;52.186;5.598;2023-03-14T12:08:44;11.40;99.90
18930;DHT22;43305;52.186;5.598;2023-03-14T12:11:20;11.10;99.90
18930;DHT22;43305;52.186;5.598;2023-03-14T12:13:50;10.80;99.90
18930;DHT22;43305;52.186;5.598;2023-03-14T12:16:39;10.50;99.90
18930;DHT22;43305;52.186;5.598;2023-03-14T12:19:33;10.70;99.90
18930;DHT22;43305;52.186;5.598;2023-03-14T12:22:17;11.00;99.90
18930;DHT22;43305;52.186;5.598;2023-03-14T12:24:49;11.10;99.90
18930;DHT22;43305;52.186;5.598;2023-03-14T12:30:27;11.40;99.90
18930;DHT22;43305;52.186;5.598;2023-03-14T12:36:18;11.70;99.90
18930;DHT22;43305;52.186;5.598;2023-03-14T12:39:06;11.70;99.90
18930;DHT22;43305;52.186;5.598;2023-03-14T12:41:39;12.00;99.90
18930;DHT22;43305;52.186;5.598;2023-03-14T12:44:38;11.80;99.90
18930;DHT22;43305;52.186;5.598;2023-03-14T12:50:16;11.70;99.90
18930;DHT22;43305;52.186;5.598;2023-03-14T12:52:56;11.40;99.90
18930;DHT22;43305;52.186;5.598;2023-03-14T12:55:33;11.40;99.90
18930;DHT22;43305;52.186;5.598;2023-03-14T12:58:08;11.20;99.90
18930;DHT22;43305;52.186;5.598;2023-03-14T13:00:40;11.10;99.90
18930;DHT22;43305;52.186;5.598;2023-03-14T13:03:18;11.30;99.90
18930;DHT22;43305;52.186;5.598;2023-03-14T13:05:55;11.70;99.90
18930;DHT22;43305;52.186;5.598;2023-03-14T13:08:38;12.30;99.90
18930;DHT22;43305;52.186;5.598;2023-03-14T13:11:08;12.20;99.90
18930;DHT22;43305;52.186;5.598;2023-03-14T13:13:41;12.00;99.90
18930;DHT22;43305;52.186;5.598;2023-03-14T13:16:14;12.10;99.90
18930;DHT22;43305;52.186;5.598;2023-03-14T13:18:44;12.00;99.90
18930;DHT22;43305;52.186;5.598;2023-03-14T13:21:15;11.90;99.90
18930;DHT22;43305;52.186;5.598;2023-03-14T13:23:57;11.30;99.90
18930;DHT22;43305;52.186;5.598;2023-03-14T13:26:31;11.10;99.90
18930;DHT22;43305;52.186;5.598;2023-03-14T13:28:59;11.10;99.90
18930;DHT22;43305;52.186;5.598;2023-03-14T13:31:26;11.40;99.90
18930;DHT22;43305;52.186;5.598;2023-03-14T13:33:58;11.50;99.90
18930;DHT22;43305;52.186;5.598;2023-03-14T13:36:25;11.90;99.90
18930;DHT22;43305;52.186;5.598;2023-03-14T13:38:57;12.30;99.90
18930;DHT22;43305;52.186;5.598;2023-03-14T13:41:25;11.70;99.90
18930;DHT22;43305;52.186;5.598;2023-03-14T13:44:00;11.30;99.90
18930;DHT22;43305;52.186;5.598;2023-03-14T13:46:28;11.10;99.90
18930;DHT22;43305;52.186;5.598;2023-03-14T13:48:58;11.40;99.90
18930;DHT22;43305;52.186;5.598;2023-03-14T13:51:25;11.50;99.90
18930;DHT22;43305;52.186;5.598;2023-03-14T13:53:58;11.20;99.90
18930;DHT22;43305;52.186;5.598;2023-03-14T13:56:28;11.10;99.90
18930;DHT22;43305;52.186;5.598;2023-03-14T13:58:55;11.20;99.90
18930;DHT22;43305;52.186;5.598;2023-03-14T14:01:23;11.30;99.90
18930;DHT22;43305;52.186;5.598;2023-03-14T14:03:53;11.70;99.90
18930;DHT22;43305;52.186;5.598;2023-03-14T14:06:28;11.70;99.90
18930;DHT22;43305;52.186;5.598;2023-03-14T14:08:55;12.00;99.90
18930;DHT22;43305;52.186;5.598;2023-03-14T14:11:36;12.00;99.90
18930;DHT22;43305;52.186;5.598;2023-03-14T14:14:06;11.60;99.90
18930;DHT22;43305;52.186;5.598;2023-03-14T14:16:36;11.40;99.90
18930;DHT22;43305;52.186;5.598;2023-03-14T14:19:03;11.40;99.90
18930;DHT22;43305;52.186;5.598;2023-03-14T14:21:30;11.30;99.90
18930;DHT22;43305;52.186;5.598;2023-03-14T14:23:58;10.70;99.90
18930;DHT22;43305;52.186;5.598;2023-03-14T14:26:27;10.40;99.90
18930;DHT22;43305;52.186;5.598;2023-03-14T14:29:02;10.30;99.90
18930;DHT22;43305;52.186;5.598;2023-03-14T14:31:29;9.70;99.90
18930;DHT22;43305;52.186;5.598;2023-03-14T14:33:57;9.90;99.90
18930;DHT22;43305;52.186;5.598;2023-03-14T14:36:28;10.00;99.90
18930;DHT22;43305;52.186;5.598;2023-03-14T14:39:00;10.10;99.90
18930;DHT22;43305;52.186;5.598;2023-03-14T14:41:33;9.90;99.90
18930;DHT22;43305;52.186;5.598;2023-03-14T14:44:02;9.50;99.90
18930;DHT22;43305;52.186;5.598;2023-03-14T14:46:32;9.10;99.90
18930;DHT22;43305;52.186;5.598;2023-03-14T14:49:04;8.90;99.90
18930;DHT22;43305;52.186;5.598;2023-03-14T14:51:33;8.70;99.90
18930;DHT22;43305;52.186;5.598;2023-03-14T14:54:11;8.50;99.90
18930;DHT22;43305;52.186;5.598;2023-03-14T14:56:40;8.30;99.90
18930;DHT22;43305;52.186;5.598;2023-03-14T14:59:20;8.30;99.90
18930;DHT22;43305;52.186;5.598;2023-03-14T15:01:47;8.40;99.90
18930;DHT22;43305;52.186;5.598;2023-03-14T15:04:16;8.50;99.90
18930;DHT22;43305;52.186;5.598;2023-03-14T15:06:45;8.40;99.90
18930;DHT22;43305;52.186;5.598;2023-03-14T15:09:14;8.30;99.90
18930;DHT22;43305;52.186;5.598;2023-03-14T15:11:43;8.20;99.90
18930;DHT22;43305;52.186;5.598;2023-03-14T15:14:10;8.10;99.90
18930;DHT22;43305;52.186;5.598;2023-03-14T15:16:38;8.10;99.90
18930;DHT22;43305;52.186;5.598;2023-03-14T15:19:11;8.20;99.90
18930;DHT22;43305;52.186;5.598;2023-03-14T15:21:38;8.10;99.90
18930;DHT22;43305;52.186;5.598;2023-03-14T15:24:05;8.00;99.90
18930;DHT22;43305;52.186;5.598;2023-03-14T15:26:32;8.00;99.90
18930;DHT22;43305;52.186;5.598;2023-03-14T15:29:00;7.90;99.90
18930;DHT22;43305;52.186;5.598;2023-03-14T15:31:27;8.00;99.90
18930;DHT22;43305;52.186;5.598;2023-03-14T15:33:54;8.10;99.90
18930;DHT22;43305;52.186;5.598;2023-03-14T15:36:23;8.10;99.90
18930;DHT22;43305;52.186;5.598;2023-03-14T15:38:51;8.00;99.90
18930;DHT22;43305;52.186;5.598;2023-03-14T15:41:19;8.10;99.90
18930;DHT22;43305;52.186;5.598;2023-03-14T15:43:46;8.10;99.90
18930;DHT22;43305;52.186;5.598;2023-03-14T15:46:15;8.30;99.90
18930;DHT22;43305;52.186;5.598;2023-03-14T15:48:43;8.50;99.90
18930;DHT22;43305;52.186;5.598;2023-03-14T15:51:10;8.40;99.90
18930;DHT22;43305;52.186;5.598;2023-03-14T15:53:37;8.20;99.90
18930;DHT22;43305;52.186;5.598;2023-03-14T15:56:04;8.20;99.90
18930;DHT22;43305;52.186;5.598;2023-03-14T15:58:31;8.00;99.90
18930;DHT22;43305;52.186;5.598;2023-03-14T16:00:59;8.10;99.90
18930;DHT22;43305;52.186;5.598;2023-03-14T16:03:28;8.10;99.90
18930;DHT22;43305;52.186;5.598;2023-03-14T16:05:55;8.00;99.90
18930;DHT22;43305;52.186;5.598;2023-03-14T16:08:23;7.80;99.90
18930;DHT22;43305;52.186;5.598;2023-03-14T16:10:51;7.70;99.90